sensor_id;sensor_type;location;lat;lon;timestamp;pressure;altitude;pressure_sealevel;temperature;humidity
44920;BME280;30655;53.094;6.072;2022-09-25T00:00:28;101639.66;;;10.76;82.65
44920;BME280;30655;53.094;6.072;2022-09-25T00:02:58;101625.97;;;10.66;82.38
44920;BME280;30655;53.094;6.072;2022-09-25T00:05:29;101702.28;;;11.07;82.07
44920;BME280;30655;53.094;6.072;2022-09-25T00:07:58;101699.03;;;11.05;82.50
44920;BME280;30655;53.094;6.072;2022-09-25T00:10:25;101543.34;;;9.99;82.64
44920;BME280;30655;53.094;6.072;2022-09-25T00:12:57;101640.84;;;10.64;82.54
44920;BME280;30655;53.094;6.072;2022-09-25T00:15:26;101502.47;;;9.73;83.03
44920;BME280;30655;53.094;6.072;2022-09-25T00:17:56;101522.19;;;9.90;82.79
44920;BME280;30655;53.094;6.072;2022-09-25T00:20:25;101724.34;;;10.99;83.00
44920;BME280;30655;53.094;6.072;2022-09-25T00:22:52;101629.56;;;10.50;82.73
44920;BME280;30655;53.094;6.072;2022-09-25T00:25:22;101591.06;;;10.26;83.15
44920;BME280;30655;53.094;6.072;2022-09-25T00:27:54;101601.72;;;10.33;82.72
44920;BME280;30655;53.094;6.072;2022-09-25T00:30:29;101563.97;;;10.05;82.68
44920;BME280;30655;53.094;6.072;2022-09-25T00:32:59;101586.34;;;10.17;82.77
44920;BME280;30655;53.094;6.072;2022-09-25T00:35:26;101508.28;;;9.65;83.00
44920;BME280;30655;53.094;6.072;2022-09-25T00:37:53;101697.31;;;10.82;83.29
44920;BME280;30655;53.094;6.072;2022-09-25T00:40:20;101718.97;;;10.82;83.43
44920;BME280;30655;53.094;6.072;2022-09-25T00:42:49;101649.53;;;10.49;83.42
44920;BME280;30655;53.094;6.072;2022-09-25T00:45:18;101688.25;;;10.71;83.45
44920;BME280;30655;53.094;6.072;2022-09-25T00:47:57;101583.13;;;10.03;83.11
44920;BME280;30655;53.094;6.072;2022-09-25T00:50:31;101647.22;;;10.41;83.20
44920;BME280;30655;53.094;6.072;2022-09-25T00:53:03;101683.19;;;10.58;83.37
44920;BME280;30655;53.094;6.072;2022-09-25T00:55:32;101611.13;;;10.14;83.33
44920;BME280;30655;53.094;6.072;2022-09-25T00:58:00;101697.28;;;10.60;83.51
44920;BME280;30655;53.094;6.072;2022-09-25T01:00:29;101700.97;;;10.54;83.23
44920;BME280;30655;53.094;6.072;2022-09-25T01:02:58;101528.94;;;9.43;83.24
44920;BME280;30655;53.094;6.072;2022-09-25T01:05:31;101570.69;;;9.69;83.37
44920;BME280;30655;53.094;6.072;2022-09-25T01:08:00;101612.44;;;9.94;83.50
44920;BME280;30655;53.094;6.072;2022-09-25T01:10:28;101632.41;;;9.93;83.54
44920;BME280;30655;53.094;6.072;2022-09-25T01:13:01;101691.47;;;10.35;83.60
44920;BME280;30655;53.094;6.072;2022-09-25T01:15:35;101617.75;;;9.89;83.51
44920;BME280;30655;53.094;6.072;2022-09-25T01:18:14;101675.25;;;10.18;83.47
44920;BME280;30655;53.094;6.072;2022-09-25T01:21:08;101520.69;;;9.04;84.11
44920;BME280;30655;53.094;6.072;2022-09-25T01:27:24;101503.34;;;9.00;83.84
44920;BME280;30655;53.094;6.072;2022-09-25T01:30:10;101523.06;;;9.01;83.82
44920;BME280;30655;53.094;6.072;2022-09-25T01:32:50;101557.13;;;9.35;83.73
44920;BME280;30655;53.094;6.072;2022-09-25T01:35:28;101513.94;;;8.90;83.92
44920;BME280;30655;53.094;6.072;2022-09-25T01:38:05;101701.81;;;10.10;83.89
44920;BME280;30655;53.094;6.072;2022-09-25T01:40:41;101566.59;;;9.21;84.00
44920;BME280;30655;53.094;6.072;2022-09-25T01:43:13;101520.59;;;8.99;84.46
44920;BME280;30655;53.094;6.072;2022-09-25T01:45:49;101674.41;;;10.01;84.49
44920;BME280;30655;53.094;6.072;2022-09-25T01:48:19;101478.72;;;8.80;84.17
44920;BME280;30655;53.094;6.072;2022-09-25T01:50:50;101510.66;;;8.88;84.06
44920;BME280;30655;53.094;6.072;2022-09-25T01:53:21;101498.72;;;8.84;83.92
44920;BME280;30655;53.094;6.072;2022-09-25T01:55:53;101496.03;;;8.84;84.22
44920;BME280;30655;53.094;6.072;2022-09-25T01:58:40;101537.91;;;9.03;84.52
44920;BME280;30655;53.094;6.072;2022-09-25T02:01:40;101497.78;;;8.90;84.81
44920;BME280;30655;53.094;6.072;2022-09-25T02:04:11;101474.78;;;8.88;85.12
44920;BME280;30655;53.094;6.072;2022-09-25T02:06:44;101651.47;;;10.04;85.25
44920;BME280;30655;53.094;6.072;2022-09-25T02:09:17;101602.94;;;9.75;85.26
44920;BME280;30655;53.094;6.072;2022-09-25T02:11:50;101491.22;;;9.15;85.31
44920;BME280;30655;53.094;6.072;2022-09-25T02:14:37;101694.66;;;10.49;85.71
44920;BME280;30655;53.094;6.072;2022-09-25T02:17:19;101480.50;;;9.20;85.35
44920;BME280;30655;53.094;6.072;2022-09-25T02:19:49;101680.31;;;10.48;85.89
44920;BME280;30655;53.094;6.072;2022-09-25T02:22:18;101513.00;;;9.58;85.72
44920;BME280;30655;53.094;6.072;2022-09-25T02:24:48;101526.59;;;9.63;85.59
44920;BME280;30655;53.094;6.072;2022-09-25T02:27:25;101673.50;;;10.62;85.69
44920;BME280;30655;53.094;6.072;2022-09-25T02:29:55;101481.69;;;9.40;85.53
44920;BME280;30655;53.094;6.072;2022-09-25T02:32:28;101597.28;;;10.10;85.74
44920;BME280;30655;53.094;6.072;2022-09-25T02:34:55;101673.94;;;10.54;85.90
44920;BME280;30655;53.094;6.072;2022-09-25T02:37:23;101526.41;;;9.53;86.09
44920;BME280;30655;53.094;6.072;2022-09-25T02:39:52;101679.28;;;10.49;85.76
44920;BME280;30655;53.094;6.072;2022-09-25T02:42:27;101666.50;;;10.45;85.78
44920;BME280;30655;53.094;6.072;2022-09-25T02:45:07;101570.75;;;9.74;85.76
44920;BME280;30655;53.094;6.072;2022-09-25T02:47:42;101481.56;;;9.19;85.85
44920;BME280;30655;53.094;6.072;2022-09-25T02:50:15;101661.16;;;10.33;85.98
44920;BME280;30655;53.094;6.072;2022-09-25T02:52:51;101624.69;;;10.02;85.94
44920;BME280;30655;53.094;6.072;2022-09-25T02:55:31;101670.34;;;10.32;85.94
44920;BME280;30655;53.094;6.072;2022-09-25T02:58:04;101675.25;;;10.35;85.99
44920;BME280;30655;53.094;6.072;2022-09-25T03:00:34;101673.84;;;10.32;85.88
44920;BME280;30655;53.094;6.072;2022-09-25T03:03:06;101680.59;;;10.30;85.96
44920;BME280;30655;53.094;6.072;2022-09-25T03:05:35;101677.53;;;10.26;85.75
44920;BME280;30655;53.094;6.072;2022-09-25T03:08:03;101687.78;;;10.24;86.08
44920;BME280;30655;53.094;6.072;2022-09-25T03:10:31;101645.75;;;10.00;85.97
44920;BME280;30655;53.094;6.072;2022-09-25T03:13:12;101677.72;;;10.20;85.96
44920;BME280;30655;53.094;6.072;2022-09-25T03:15:41;101674.31;;;10.13;86.43
44920;BME280;30655;53.094;6.072;2022-09-25T03:18:15;101694.97;;;10.19;86.38
44920;BME280;30655;53.094;6.072;2022-09-25T03:20:41;101685.22;;;10.18;86.58
44920;BME280;30655;53.094;6.072;2022-09-25T03:23:08;101476.56;;;8.82;86.63
44920;BME280;30655;53.094;6.072;2022-09-25T03:25:35;101660.31;;;9.99;86.89
44920;BME280;30655;53.094;6.072;2022-09-25T03:28:11;101592.13;;;9.47;87.27
44920;BME280;30655;53.094;6.072;2022-09-25T03:30:41;101496.41;;;9.04;87.31
44920;BME280;30655;53.094;6.072;2022-09-25T03:33:09;101635.72;;;9.84;87.67
44920;BME280;30655;53.094;6.072;2022-09-25T03:35:38;101525.31;;;9.21;87.84
44920;BME280;30655;53.094;6.072;2022-09-25T03:38:06;101642.69;;;9.97;88.48
44920;BME280;30655;53.094;6.072;2022-09-25T03:40:33;101711.13;;;10.47;88.99
44920;BME280;30655;53.094;6.072;2022-09-25T03:43:00;101650.59;;;10.15;88.84
44920;BME280;30655;53.094;6.072;2022-09-25T03:45:27;101546.53;;;9.62;88.60
44920;BME280;30655;53.094;6.072;2022-09-25T03:47:54;101619.91;;;10.21;88.73
44920;BME280;30655;53.094;6.072;2022-09-25T03:50:20;101567.97;;;10.02;89.00
44920;BME280;30655;53.094;6.072;2022-09-25T03:52:49;101471.47;;;9.59;88.86
44920;BME280;30655;53.094;6.072;2022-09-25T03:55:16;101677.78;;;10.97;88.60
44920;BME280;30655;53.094;6.072;2022-09-25T03:57:42;101664.91;;;11.04;88.85
44920;BME280;30655;53.094;6.072;2022-09-25T04:00:10;101503.81;;;10.09;88.75
44920;BME280;30655;53.094;6.072;2022-09-25T04:02:37;101608.97;;;10.88;88.43
44920;BME280;30655;53.094;6.072;2022-09-25T04:05:05;101629.03;;;10.92;88.31
44920;BME280;30655;53.094;6.072;2022-09-25T04:07:33;101565.97;;;10.64;88.11
44920;BME280;30655;53.094;6.072;2022-09-25T04:10:01;101587.78;;;10.79;88.38
44920;BME280;30655;53.094;6.072;2022-09-25T04:12:29;101665.25;;;11.29;88.33
44920;BME280;30655;53.094;6.072;2022-09-25T04:14:55;101490.06;;;10.11;88.00
44920;BME280;30655;53.094;6.072;2022-09-25T04:17:22;101557.78;;;10.59;88.00
44920;BME280;30655;53.094;6.072;2022-09-25T04:19:49;101658.69;;;11.25;87.97
44920;BME280;30655;53.094;6.072;2022-09-25T04:22:16;101657.06;;;11.24;87.80
44920;BME280;30655;53.094;6.072;2022-09-25T04:24:43;101660.81;;;11.23;88.20
44920;BME280;30655;53.094;6.072;2022-09-25T04:27:11;101649.41;;;11.21;88.45
44920;BME280;30655;53.094;6.072;2022-09-25T04:29:37;101587.03;;;10.84;88.26
44920;BME280;30655;53.094;6.072;2022-09-25T04:32:07;101647.06;;;11.25;88.53
44920;BME280;30655;53.094;6.072;2022-09-25T04:34:35;101560.09;;;10.72;88.44
44920;BME280;30655;53.094;6.072;2022-09-25T04:37:02;101624.16;;;11.10;88.61
44920;BME280;30655;53.094;6.072;2022-09-25T04:39:29;101644.84;;;11.21;88.58
44920;BME280;30655;53.094;6.072;2022-09-25T04:41:56;101567.22;;;10.78;88.32
44920;BME280;30655;53.094;6.072;2022-09-25T04:44:24;101447.19;;;9.98;88.62
44920;BME280;30655;53.094;6.072;2022-09-25T04:46:51;101586.53;;;10.87;89.15
44920;BME280;30655;53.094;6.072;2022-09-25T04:49:18;101464.59;;;10.07;88.76
44920;BME280;30655;53.094;6.072;2022-09-25T04:51:44;101499.91;;;10.17;88.94
44920;BME280;30655;53.094;6.072;2022-09-25T04:54:11;101580.44;;;10.75;89.32
44920;BME280;30655;53.094;6.072;2022-09-25T04:56:38;101496.72;;;10.20;90.02
44920;BME280;30655;53.094;6.072;2022-09-25T04:59:05;101670.13;;;11.32;89.66
44920;BME280;30655;53.094;6.072;2022-09-25T05:01:33;101484.78;;;10.16;89.90
44920;BME280;30655;53.094;6.072;2022-09-25T05:04:02;101590.34;;;10.91;90.10
44920;BME280;30655;53.094;6.072;2022-09-25T05:06:34;101611.41;;;11.11;89.74
44920;BME280;30655;53.094;6.072;2022-09-25T05:09:01;101555.75;;;10.71;89.74
44920;BME280;30655;53.094;6.072;2022-09-25T05:11:28;101658.13;;;11.45;90.14
44920;BME280;30655;53.094;6.072;2022-09-25T05:13:55;101620.81;;;11.25;89.70
44920;BME280;30655;53.094;6.072;2022-09-25T05:16:22;101650.53;;;11.47;90.00
44920;BME280;30655;53.094;6.072;2022-09-25T05:18:51;101646.78;;;11.48;89.80
44920;BME280;30655;53.094;6.072;2022-09-25T05:21:20;101645.94;;;11.47;89.81
44920;BME280;30655;53.094;6.072;2022-09-25T05:23:47;101653.81;;;11.49;89.83
44920;BME280;30655;53.094;6.072;2022-09-25T05:26:14;101637.22;;;11.40;89.75
44920;BME280;30655;53.094;6.072;2022-09-25T05:28:41;101658.41;;;11.48;89.69
44920;BME280;30655;53.094;6.072;2022-09-25T05:31:08;101660.06;;;11.49;89.82
44920;BME280;30655;53.094;6.072;2022-09-25T05:33:35;101658.41;;;11.48;89.79
44920;BME280;30655;53.094;6.072;2022-09-25T05:36:06;101633.88;;;11.33;90.10
44920;BME280;30655;53.094;6.072;2022-09-25T05:38:34;101664.84;;;11.42;90.29
44920;BME280;30655;53.094;6.072;2022-09-25T05:41:01;101643.06;;;11.32;90.54
44920;BME280;30655;53.094;6.072;2022-09-25T05:43:29;101646.00;;;11.26;90.28
44920;BME280;30655;53.094;6.072;2022-09-25T05:45:57;101673.47;;;11.39;90.85
44920;BME280;30655;53.094;6.072;2022-09-25T05:48:24;101564.22;;;10.75;90.81
44920;BME280;30655;53.094;6.072;2022-09-25T05:50:56;101667.50;;;11.37;91.33
44920;BME280;30655;53.094;6.072;2022-09-25T05:53:31;101481.63;;;10.24;90.80
44920;BME280;30655;53.094;6.072;2022-09-25T05:59:34;101504.72;;;10.53;91.19
44920;BME280;30655;53.094;6.072;2022-09-25T06:02:10;101580.34;;;11.13;90.99
44920;BME280;30655;53.094;6.072;2022-09-25T06:04:36;101590.47;;;11.23;91.12
44920;BME280;30655;53.094;6.072;2022-09-25T06:07:03;101639.34;;;11.60;91.41
44920;BME280;30655;53.094;6.072;2022-09-25T06:09:32;101665.22;;;11.73;91.19
44920;BME280;30655;53.094;6.072;2022-09-25T06:12:01;101532.06;;;11.00;91.19
44920;BME280;30655;53.094;6.072;2022-09-25T06:14:28;101522.13;;;10.84;91.17
44920;BME280;30655;53.094;6.072;2022-09-25T06:16:56;101659.28;;;11.76;91.08
44920;BME280;30655;53.094;6.072;2022-09-25T06:19:22;101653.84;;;11.76;91.32
44920;BME280;30655;53.094;6.072;2022-09-25T06:21:49;101653.06;;;11.75;91.14
44920;BME280;30655;53.094;6.072;2022-09-25T06:24:16;101627.41;;;11.61;91.02
44920;BME280;30655;53.094;6.072;2022-09-25T06:26:47;101484.91;;;10.69;90.96
44920;BME280;30655;53.094;6.072;2022-09-25T06:29:13;101514.84;;;10.85;91.02
44920;BME280;30655;53.094;6.072;2022-09-25T06:31:40;101569.47;;;11.08;90.76
44920;BME280;30655;53.094;6.072;2022-09-25T06:34:07;101636.81;;;11.53;91.17
44920;BME280;30655;53.094;6.072;2022-09-25T06:36:35;101641.28;;;11.64;91.15
44920;BME280;30655;53.094;6.072;2022-09-25T06:39:02;101655.09;;;11.68;90.95
44920;BME280;30655;53.094;6.072;2022-09-25T06:41:28;101465.94;;;10.43;90.91
44920;BME280;30655;53.094;6.072;2022-09-25T06:43:57;101507.53;;;10.63;91.08
44920;BME280;30655;53.094;6.072;2022-09-25T06:46:25;101662.94;;;11.64;91.38
44920;BME280;30655;53.094;6.072;2022-09-25T06:48:54;101579.66;;;11.23;91.28
44920;BME280;30655;53.094;6.072;2022-09-25T06:51:22;101491.63;;;10.67;91.79
44920;BME280;30655;53.094;6.072;2022-09-25T06:54:18;101657.66;;;11.75;91.94
44920;BME280;30655;53.094;6.072;2022-09-25T06:56:48;101454.47;;;10.57;91.81
44920;BME280;30655;53.094;6.072;2022-09-25T06:59:16;101447.72;;;10.55;91.76
44920;BME280;30655;53.094;6.072;2022-09-25T07:01:43;101444.78;;;10.61;92.15
44920;BME280;30655;53.094;6.072;2022-09-25T07:04:15;101634.50;;;11.89;92.41
44920;BME280;30655;53.094;6.072;2022-09-25T07:07:01;101416.09;;;10.55;91.93
44920;BME280;30655;53.094;6.072;2022-09-25T07:09:34;101463.94;;;10.82;92.46
44920;BME280;30655;53.094;6.072;2022-09-25T07:12:02;101635.09;;;11.96;93.27
44920;BME280;30655;53.094;6.072;2022-09-25T07:14:45;101624.25;;;11.96;92.65
44920;BME280;30655;53.094;6.072;2022-09-25T07:17:28;101577.69;;;11.72;92.47
44920;BME280;30655;53.094;6.072;2022-09-25T07:20:21;101533.38;;;11.51;92.85
44920;BME280;30655;53.094;6.072;2022-09-25T07:22:57;101639.13;;;12.20;92.66
44920;BME280;30655;53.094;6.072;2022-09-25T07:25:24;101624.09;;;12.07;92.81
44920;BME280;30655;53.094;6.072;2022-09-25T07:28:01;101660.34;;;12.33;92.87
44920;BME280;30655;53.094;6.072;2022-09-25T07:30:29;101659.31;;;12.39;93.02
44920;BME280;30655;53.094;6.072;2022-09-25T07:32:57;101463.53;;;11.21;92.91
44920;BME280;30655;53.094;6.072;2022-09-25T07:35:28;101664.28;;;12.52;92.79
44920;BME280;30655;53.094;6.072;2022-09-25T07:38:04;101657.81;;;12.59;92.84
44920;BME280;30655;53.094;6.072;2022-09-25T07:40:31;101566.56;;;12.00;92.42
44920;BME280;30655;53.094;6.072;2022-09-25T07:42:58;101495.25;;;11.58;92.05
44920;BME280;30655;53.094;6.072;2022-09-25T07:45:33;101547.34;;;12.02;92.34
44920;BME280;30655;53.094;6.072;2022-09-25T07:48:03;101652.97;;;12.66;92.19
44920;BME280;30655;53.094;6.072;2022-09-25T07:50:32;101522.91;;;11.92;91.78
44920;BME280;30655;53.094;6.072;2022-09-25T07:52:59;101659.28;;;12.76;91.82
44920;BME280;30655;53.094;6.072;2022-09-25T07:55:26;101675.03;;;12.79;91.59
44920;BME280;30655;53.094;6.072;2022-09-25T07:57:56;101604.63;;;12.52;91.27
44920;BME280;30655;53.094;6.072;2022-09-25T08:00:25;101652.56;;;12.84;91.57
44920;BME280;30655;53.094;6.072;2022-09-25T08:03:10;101620.72;;;12.69;91.60
44920;BME280;30655;53.094;6.072;2022-09-25T08:05:56;101641.13;;;12.82;90.90
44920;BME280;30655;53.094;6.072;2022-09-25T08:08:24;101471.94;;;11.84;90.76
44920;BME280;30655;53.094;6.072;2022-09-25T08:10:51;101580.78;;;12.55;90.67
44920;BME280;30655;53.094;6.072;2022-09-25T08:13:18;101485.03;;;12.02;90.50
44920;BME280;30655;53.094;6.072;2022-09-25T08:15:48;101483.47;;;12.11;90.62
44920;BME280;30655;53.094;6.072;2022-09-25T08:21:06;101578.22;;;12.85;90.30
44920;BME280;30655;53.094;6.072;2022-09-25T08:23:49;101477.00;;;12.17;90.18
44920;BME280;30655;53.094;6.072;2022-09-25T08:26:20;101455.88;;;12.14;89.81
44920;BME280;30655;53.094;6.072;2022-09-25T08:28:47;101654.22;;;13.47;90.03
44920;BME280;30655;53.094;6.072;2022-09-25T08:31:14;101529.59;;;12.68;89.48
44920;BME280;30655;53.094;6.072;2022-09-25T08:33:45;101513.06;;;12.70;89.32
44920;BME280;30655;53.094;6.072;2022-09-25T08:36:16;101661.88;;;13.75;89.35
44920;BME280;30655;53.094;6.072;2022-09-25T08:38:43;101674.66;;;13.80;88.75
44920;BME280;30655;53.094;6.072;2022-09-25T08:41:15;101709.97;;;13.75;86.80
44920;BME280;30655;53.094;6.072;2022-09-25T08:43:46;101636.81;;;13.43;86.99
44920;BME280;30655;53.094;6.072;2022-09-25T08:46:23;101634.88;;;13.28;86.04
44920;BME280;30655;53.094;6.072;2022-09-25T08:48:57;101549.94;;;12.71;86.11
44920;BME280;30655;53.094;6.072;2022-09-25T08:51:25;101686.53;;;13.44;85.99
44920;BME280;30655;53.094;6.072;2022-09-25T08:53:53;101634.56;;;13.15;86.63
44920;BME280;30655;53.094;6.072;2022-09-25T08:56:19;101572.44;;;12.71;86.78
44920;BME280;30655;53.094;6.072;2022-09-25T08:58:50;101518.63;;;12.43;87.20
44920;BME280;30655;53.094;6.072;2022-09-25T09:01:21;101501.72;;;12.26;87.39
44920;BME280;30655;53.094;6.072;2022-09-25T09:04:06;101474.25;;;12.12;87.93
44920;BME280;30655;53.094;6.072;2022-09-25T09:06:40;101588.50;;;12.83;88.08
44920;BME280;30655;53.094;6.072;2022-09-25T09:09:13;101665.28;;;13.35;88.72
44920;BME280;30655;53.094;6.072;2022-09-25T09:11:50;101664.75;;;13.33;88.56
44920;BME280;30655;53.094;6.072;2022-09-25T09:14:19;101666.44;;;13.45;89.27
44920;BME280;30655;53.094;6.072;2022-09-25T09:16:53;101534.44;;;12.66;88.96
44920;BME280;30655;53.094;6.072;2022-09-25T09:19:23;101627.81;;;13.32;89.07
44920;BME280;30655;53.094;6.072;2022-09-25T09:21:55;101603.13;;;13.34;89.20
44920;BME280;30655;53.094;6.072;2022-09-25T09:24:28;101482.41;;;12.69;89.37
44920;BME280;30655;53.094;6.072;2022-09-25T09:27:09;101587.66;;;13.40;89.79
44920;BME280;30655;53.094;6.072;2022-09-25T09:29:56;101643.69;;;13.96;90.11
44920;BME280;30655;53.094;6.072;2022-09-25T09:32:48;101606.72;;;13.75;89.68
44920;BME280;30655;53.094;6.072;2022-09-25T09:35:30;101595.59;;;13.76;89.25
44920;BME280;30655;53.094;6.072;2022-09-25T09:38:12;101634.47;;;14.22;89.29
44920;BME280;30655;53.094;6.072;2022-09-25T09:40:55;101623.03;;;14.26;88.93
44920;BME280;30655;53.094;6.072;2022-09-25T09:43:34;101658.13;;;14.52;88.95
44920;BME280;30655;53.094;6.072;2022-09-25T09:46:12;101634.47;;;14.43;88.55
44920;BME280;30655;53.094;6.072;2022-09-25T09:48:48;101533.34;;;14.00;87.74
44920;BME280;30655;53.094;6.072;2022-09-25T09:51:23;101612.16;;;14.46;87.34
44920;BME280;30655;53.094;6.072;2022-09-25T09:53:59;101599.91;;;14.58;86.99
44920;BME280;30655;53.094;6.072;2022-09-25T09:56:29;101575.72;;;14.47;87.07
44920;BME280;30655;53.094;6.072;2022-09-25T09:58:58;101640.91;;;14.92;86.73
44920;BME280;30655;53.094;6.072;2022-09-25T10:01:29;101621.31;;;14.85;85.80
44920;BME280;30655;53.094;6.072;2022-09-25T10:04:16;101640.00;;;15.12;86.41
44920;BME280;30655;53.094;6.072;2022-09-25T10:06:47;101636.88;;;15.44;87.31
44920;BME280;30655;53.094;6.072;2022-09-25T10:09:17;101626.34;;;16.10;88.66
44920;BME280;30655;53.094;6.072;2022-09-25T10:11:59;101633.19;;;16.94;84.01
44920;BME280;30655;53.094;6.072;2022-09-25T10:14:32;101535.72;;;17.32;85.11
44920;BME280;30655;53.094;6.072;2022-09-25T10:17:04;101616.72;;;18.63;83.29
44920;BME280;30655;53.094;6.072;2022-09-25T10:19:47;101575.84;;;19.07;77.21
44920;BME280;30655;53.094;6.072;2022-09-25T10:22:20;101473.59;;;19.20;76.41
44920;BME280;30655;53.094;6.072;2022-09-25T10:24:58;101614.25;;;20.46;69.92
44920;BME280;30655;53.094;6.072;2022-09-25T10:30:52;101555.72;;;20.14;66.76
44920;BME280;30655;53.094;6.072;2022-09-25T10:33:58;101469.03;;;19.52;64.67
44920;BME280;30655;53.094;6.072;2022-09-25T10:36:38;101558.59;;;20.32;65.26
44920;BME280;30655;53.094;6.072;2022-09-25T10:39:24;101516.00;;;19.81;59.34
44920;BME280;30655;53.094;6.072;2022-09-25T10:42:32;101562.63;;;20.65;59.36
44920;BME280;30655;53.094;6.072;2022-09-25T10:45:14;101551.84;;;20.86;59.09
44920;BME280;30655;53.094;6.072;2022-09-25T10:47:47;101607.47;;;21.65;60.28
44920;BME280;30655;53.094;6.072;2022-09-25T10:50:18;101536.66;;;20.88;57.60
44920;BME280;30655;53.094;6.072;2022-09-25T10:52:46;101613.44;;;20.93;56.30
44920;BME280;30655;53.094;6.072;2022-09-25T10:55:22;101617.84;;;20.33;55.15
44920;BME280;30655;53.094;6.072;2022-09-25T10:57:54;101607.94;;;19.56;56.49
44920;BME280;30655;53.094;6.072;2022-09-25T11:00:26;101617.53;;;19.04;57.01
44920;BME280;30655;53.094;6.072;2022-09-25T11:02:55;101614.47;;;18.65;57.48
44920;BME280;30655;53.094;6.072;2022-09-25T11:05:26;101600.59;;;18.29;57.80
44920;BME280;30655;53.094;6.072;2022-09-25T11:07:55;101559.28;;;17.66;58.32
44920;BME280;30655;53.094;6.072;2022-09-25T11:10:26;101455.69;;;16.75;57.71
44920;BME280;30655;53.094;6.072;2022-09-25T11:12:54;101560.88;;;17.10;57.78
44920;BME280;30655;53.094;6.072;2022-09-25T11:15:24;101533.75;;;16.76;58.53
44920;BME280;30655;53.094;6.072;2022-09-25T11:17:52;101578.06;;;16.92;59.38
44920;BME280;30655;53.094;6.072;2022-09-25T11:20:23;101584.97;;;16.85;59.27
44920;BME280;30655;53.094;6.072;2022-09-25T11:22:59;101588.34;;;16.76;59.77
44920;BME280;30655;53.094;6.072;2022-09-25T11:25:35;101585.63;;;16.76;59.97
44920;BME280;30655;53.094;6.072;2022-09-25T11:28:11;101539.47;;;16.51;60.04
44920;BME280;30655;53.094;6.072;2022-09-25T11:30:41;101579.56;;;16.79;60.59
44920;BME280;30655;53.094;6.072;2022-09-25T11:33:16;101587.63;;;16.90;60.47
44920;BME280;30655;53.094;6.072;2022-09-25T11:35:47;101588.28;;;16.82;60.50
44920;BME280;30655;53.094;6.072;2022-09-25T11:38:24;101568.41;;;16.76;60.58
44920;BME280;30655;53.094;6.072;2022-09-25T11:41:00;101580.63;;;16.84;61.14
44920;BME280;30655;53.094;6.072;2022-09-25T11:43:46;101577.03;;;16.88;61.36
44920;BME280;30655;53.094;6.072;2022-09-25T11:46:25;101578.50;;;16.99;60.98
44920;BME280;30655;53.094;6.072;2022-09-25T11:49:03;101462.84;;;16.24;61.40
44920;BME280;30655;53.094;6.072;2022-09-25T11:52:04;101575.69;;;17.04;60.37
44920;BME280;30655;53.094;6.072;2022-09-25T11:54:43;101536.44;;;17.00;60.10
44920;BME280;30655;53.094;6.072;2022-09-25T11:57:20;101569.75;;;17.40;59.73
44920;BME280;30655;53.094;6.072;2022-09-25T12:00:06;101575.97;;;17.45;59.62
44920;BME280;30655;53.094;6.072;2022-09-25T12:02:46;101567.47;;;17.66;60.13
44920;BME280;30655;53.094;6.072;2022-09-25T12:05:44;101566.06;;;17.87;59.88
44920;BME280;30655;53.094;6.072;2022-09-25T12:08:20;101408.03;;;17.19;59.10
44920;BME280;30655;53.094;6.072;2022-09-25T12:10:55;101550.94;;;18.22;59.34
44920;BME280;30655;53.094;6.072;2022-09-25T12:13:33;101560.91;;;18.45;58.39
44920;BME280;30655;53.094;6.072;2022-09-25T12:16:09;101559.69;;;18.37;58.34
44920;BME280;30655;53.094;6.072;2022-09-25T12:18:55;101551.97;;;18.39;56.97
44920;BME280;30655;53.094;6.072;2022-09-25T12:21:30;101547.94;;;18.50;58.47
44920;BME280;30655;53.094;6.072;2022-09-25T12:24:03;101551.00;;;18.63;57.03
44920;BME280;30655;53.094;6.072;2022-09-25T12:26:39;101546.75;;;18.57;56.70
44920;BME280;30655;53.094;6.072;2022-09-25T12:29:22;101539.03;;;18.59;56.48
44920;BME280;30655;53.094;6.072;2022-09-25T12:31:56;101533.03;;;18.70;55.96
44920;BME280;30655;53.094;6.072;2022-09-25T12:34:39;101525.84;;;18.74;57.13
44920;BME280;30655;53.094;6.072;2022-09-25T12:37:14;101523.63;;;18.76;55.77
44920;BME280;30655;53.094;6.072;2022-09-25T12:39:46;101525.25;;;18.77;56.35
44920;BME280;30655;53.094;6.072;2022-09-25T12:42:46;101364.66;;;17.63;54.70
44920;BME280;30655;53.094;6.072;2022-09-25T12:59:11;101504.81;;;18.83;51.13
44920;BME280;30655;53.094;6.072;2022-09-25T13:01:45;101424.03;;;18.45;51.76
44920;BME280;30655;53.094;6.072;2022-09-25T13:04:53;101439.94;;;18.70;50.57
44920;BME280;30655;53.094;6.072;2022-09-25T13:07:31;101499.88;;;19.21;48.59
44920;BME280;30655;53.094;6.072;2022-09-25T13:10:17;101412.63;;;18.79;48.14
44920;BME280;30655;53.094;6.072;2022-09-25T13:13:10;101478.44;;;19.23;47.79
44920;BME280;30655;53.094;6.072;2022-09-25T13:23:07;101303.06;;;18.79;48.06
44920;BME280;30655;53.094;6.072;2022-09-25T13:25:47;101475.13;;;20.02;46.00
44920;BME280;30655;53.094;6.072;2022-09-25T13:28:48;101411.88;;;19.76;45.13
44920;BME280;30655;53.094;6.072;2022-09-25T13:31:38;101377.25;;;19.58;46.37
44920;BME280;30655;53.094;6.072;2022-09-25T13:34:18;101313.25;;;19.31;43.81
44920;BME280;30655;53.094;6.072;2022-09-25T13:36:55;101436.00;;;20.27;44.88
44920;BME280;30655;53.094;6.072;2022-09-25T13:39:56;101400.91;;;20.15;43.91
44920;BME280;30655;53.094;6.072;2022-09-25T13:50:03;101473.78;;;20.95;41.88
44920;BME280;30655;53.094;6.072;2022-09-25T13:53:18;101444.34;;;20.70;43.17
44920;BME280;30655;53.094;6.072;2022-09-25T14:20:55;101296.47;;;21.53;43.01
44920;BME280;30655;53.094;6.072;2022-09-25T14:23:54;101434.44;;;22.98;40.11
44920;BME280;30655;53.094;6.072;2022-09-25T15:22:09;101334.63;;;17.31;48.94
44920;BME280;30655;53.094;6.072;2022-09-25T15:28:24;101333.34;;;17.10;50.31